Terminal Aerodrome Forecast
Issued by NWS Wilmington, OH

Current Version | Previous Version | Text Only | Print | Product List | Glossary Off
Versions: 1 2 3 4 5 6 7 8 9 10 11 12 13 14 15 16 17 18 19 20 21 22 23 24 25 26 27 28 29 30 31

000
FTUS41 KILN 270540
TAFILN
TAF
KILN 270540Z 2706/2806 05008KT 3SM BR OVC007
      TEMPO 2706/2708 2SM -SHRA BR
     FM271400 06008KT P6SM OVC015
     FM271900 07006KT P6SM BKN022
     FM272100 07006KT P6SM BKN035=

USA.gov is the U.S. government's official web portal to all federal, state and local government web resources and services.